Caesar, Mississippi
Current Conditions -  °F | °C
As of 7:53 AM on Friday 24 Oct 2014 (Local Time) from KASD Reporting Station
Clear Clear  
Wind Chill: 50°   Ceiling: Unl
Heat Index: 50°   Visibility: 10mi
Dew Point: 46°   Wind: 3mph
Humidity: 86%   Direction: 10°N
Pressure: 30.1"   Gusts: NA
Location:  30.5854°N, 89.6932°W
Report Text: KASD 241253Z AUTO 01003KT 10SM CLR 10/08 A3010 RMK AO2 SLP192 T01000078
Loading
Personal Weather Stations






























Interactive Weather Map
Tropical Storm Tracking
New forecast layout! Learn more

10-Day Weather Forecast

Advertisements
Track Severe Weather on mobile